sensor_id;sensor_type;location;lat;lon;timestamp;P1;durP1;ratioP1;P2;durP2;ratioP2
28724;SDS011;43472;48.980;9.646;2022-08-19T00:00:29;13.48;;;11.70;;
28724;SDS011;43472;48.980;9.646;2022-08-19T00:05:31;17.23;;;12.55;;
28724;SDS011;43472;48.980;9.646;2022-08-19T00:10:33;14.45;;;12.57;;
28724;SDS011;43472;48.980;9.646;2022-08-19T00:15:35;16.15;;;12.80;;
28724;SDS011;43472;48.980;9.646;2022-08-19T00:20:37;15.27;;;12.20;;
28724;SDS011;43472;48.980;9.646;2022-08-19T00:25:41;14.15;;;12.68;;
28724;SDS011;43472;48.980;9.646;2022-08-19T00:30:48;16.90;;;13.77;;
28724;SDS011;43472;48.980;9.646;2022-08-19T00:35:54;14.75;;;12.02;;
28724;SDS011;43472;48.980;9.646;2022-08-19T00:40:56;20.77;;;13.02;;
28724;SDS011;43472;48.980;9.646;2022-08-19T00:45:58;15.57;;;12.73;;
28724;SDS011;43472;48.980;9.646;2022-08-19T00:51:00;16.58;;;13.55;;
28724;SDS011;43472;48.980;9.646;2022-08-19T00:56:03;15.95;;;12.85;;
28724;SDS011;43472;48.980;9.646;2022-08-19T01:01:07;24.05;;;17.65;;
28724;SDS011;43472;48.980;9.646;2022-08-19T01:06:12;13.98;;;12.13;;
28724;SDS011;43472;48.980;9.646;2022-08-19T01:11:20;14.77;;;13.27;;
28724;SDS011;43472;48.980;9.646;2022-08-19T01:16:22;18.58;;;13.40;;
28724;SDS011;43472;48.980;9.646;2022-08-19T01:21:28;17.88;;;14.32;;
28724;SDS011;43472;48.980;9.646;2022-08-19T01:26:42;15.85;;;14.07;;
28724;SDS011;43472;48.980;9.646;2022-08-19T01:31:46;16.65;;;13.57;;
28724;SDS011;43472;48.980;9.646;2022-08-19T01:36:53;19.23;;;13.57;;
28724;SDS011;43472;48.980;9.646;2022-08-19T01:52:29;23.25;;;18.23;;
28724;SDS011;43472;48.980;9.646;2022-08-19T01:57:31;15.73;;;13.85;;
28724;SDS011;43472;48.980;9.646;2022-08-19T02:02:33;16.00;;;14.35;;
28724;SDS011;43472;48.980;9.646;2022-08-19T02:07:35;23.33;;;15.57;;
28724;SDS011;43472;48.980;9.646;2022-08-19T02:12:41;17.88;;;14.77;;
28724;SDS011;43472;48.980;9.646;2022-08-19T02:17:43;15.63;;;14.02;;
28724;SDS011;43472;48.980;9.646;2022-08-19T02:22:45;18.45;;;13.77;;
28724;SDS011;43472;48.980;9.646;2022-08-19T02:27:47;17.15;;;14.07;;
28724;SDS011;43472;48.980;9.646;2022-08-19T02:32:50;17.40;;;13.45;;
28724;SDS011;43472;48.980;9.646;2022-08-19T02:37:52;20.92;;;15.70;;
28724;SDS011;43472;48.980;9.646;2022-08-19T02:43:13;18.80;;;15.43;;
28724;SDS011;43472;48.980;9.646;2022-08-19T02:48:15;17.60;;;14.88;;
28724;SDS011;43472;48.980;9.646;2022-08-19T02:53:22;16.35;;;14.73;;
28724;SDS011;43472;48.980;9.646;2022-08-19T02:58:27;18.10;;;15.95;;
28724;SDS011;43472;48.980;9.646;2022-08-19T03:03:29;17.00;;;14.75;;
28724;SDS011;43472;48.980;9.646;2022-08-19T03:08:30;18.05;;;14.68;;
28724;SDS011;43472;48.980;9.646;2022-08-19T03:13:32;20.88;;;16.60;;
28724;SDS011;43472;48.980;9.646;2022-08-19T03:18:34;18.80;;;15.45;;
28724;SDS011;43472;48.980;9.646;2022-08-19T03:23:36;16.80;;;14.82;;
28724;SDS011;43472;48.980;9.646;2022-08-19T03:28:38;17.92;;;16.00;;
28724;SDS011;43472;48.980;9.646;2022-08-19T03:33:40;18.70;;;16.40;;
28724;SDS011;43472;48.980;9.646;2022-08-19T03:38:47;21.27;;;16.67;;
28724;SDS011;43472;48.980;9.646;2022-08-19T03:43:56;18.95;;;16.27;;
28724;SDS011;43472;48.980;9.646;2022-08-19T03:48:59;18.42;;;15.85;;
28724;SDS011;43472;48.980;9.646;2022-08-19T03:54:06;23.95;;;17.17;;
28724;SDS011;43472;48.980;9.646;2022-08-19T03:59:11;17.95;;;16.00;;
28724;SDS011;43472;48.980;9.646;2022-08-19T04:04:15;25.52;;;14.68;;
28724;SDS011;43472;48.980;9.646;2022-08-19T04:09:20;16.52;;;14.38;;
28724;SDS011;43472;48.980;9.646;2022-08-19T04:14:26;18.70;;;16.05;;
28724;SDS011;43472;48.980;9.646;2022-08-19T04:19:32;19.52;;;16.83;;
28724;SDS011;43472;48.980;9.646;2022-08-19T04:24:36;18.30;;;15.63;;
28724;SDS011;43472;48.980;9.646;2022-08-19T04:29:38;18.48;;;16.00;;
28724;SDS011;43472;48.980;9.646;2022-08-19T04:34:41;18.95;;;15.52;;
28724;SDS011;43472;48.980;9.646;2022-08-19T04:40:03;17.83;;;15.50;;
28724;SDS011;43472;48.980;9.646;2022-08-19T04:45:25;19.27;;;16.88;;
28724;SDS011;43472;48.980;9.646;2022-08-19T04:50:27;21.60;;;18.77;;
28724;SDS011;43472;48.980;9.646;2022-08-19T04:55:29;20.80;;;17.33;;
28724;SDS011;43472;48.980;9.646;2022-08-19T05:00:33;19.98;;;17.60;;
28724;SDS011;43472;48.980;9.646;2022-08-19T05:05:39;20.27;;;17.00;;
28724;SDS011;43472;48.980;9.646;2022-08-19T05:10:46;23.05;;;17.63;;
28724;SDS011;43472;48.980;9.646;2022-08-19T05:15:53;23.33;;;18.65;;
28724;SDS011;43472;48.980;9.646;2022-08-19T05:20:56;27.75;;;17.75;;
28724;SDS011;43472;48.980;9.646;2022-08-19T05:26:17;21.17;;;18.83;;
28724;SDS011;43472;48.980;9.646;2022-08-19T05:31:19;20.77;;;16.23;;
28724;SDS011;43472;48.980;9.646;2022-08-19T05:36:26;21.27;;;18.42;;
28724;SDS011;43472;48.980;9.646;2022-08-19T05:41:31;19.95;;;17.50;;
28724;SDS011;43472;48.980;9.646;2022-08-19T05:46:36;22.73;;;17.95;;
28724;SDS011;43472;48.980;9.646;2022-08-19T05:51:39;24.17;;;19.25;;
28724;SDS011;43472;48.980;9.646;2022-08-19T05:56:41;22.30;;;18.25;;
28724;SDS011;43472;48.980;9.646;2022-08-19T06:01:51;24.65;;;17.48;;
28724;SDS011;43472;48.980;9.646;2022-08-19T06:06:56;23.92;;;18.73;;
28724;SDS011;43472;48.980;9.646;2022-08-19T06:11:59;26.80;;;18.75;;
28724;SDS011;43472;48.980;9.646;2022-08-19T06:17:02;21.10;;;18.90;;
28724;SDS011;43472;48.980;9.646;2022-08-19T06:22:07;23.00;;;18.70;;
28724;SDS011;43472;48.980;9.646;2022-08-19T06:27:09;24.73;;;20.40;;
28724;SDS011;43472;48.980;9.646;2022-08-19T06:32:12;27.38;;;20.83;;
28724;SDS011;43472;48.980;9.646;2022-08-19T06:37:24;22.77;;;19.85;;
28724;SDS011;43472;48.980;9.646;2022-08-19T06:42:27;35.35;;;23.95;;
28724;SDS011;43472;48.980;9.646;2022-08-19T06:47:30;30.75;;;23.00;;
28724;SDS011;43472;48.980;9.646;2022-08-19T06:52:34;27.40;;;22.90;;
28724;SDS011;43472;48.980;9.646;2022-08-19T06:57:38;27.45;;;23.15;;
28724;SDS011;43472;48.980;9.646;2022-08-19T07:02:41;30.30;;;23.55;;
28724;SDS011;43472;48.980;9.646;2022-08-19T07:07:53;27.58;;;22.73;;
28724;SDS011;43472;48.980;9.646;2022-08-19T07:12:59;34.47;;;26.88;;
28724;SDS011;43472;48.980;9.646;2022-08-19T07:18:01;28.60;;;22.58;;
28724;SDS011;43472;48.980;9.646;2022-08-19T07:23:03;32.90;;;24.27;;
28724;SDS011;43472;48.980;9.646;2022-08-19T07:28:07;27.23;;;22.88;;
28724;SDS011;43472;48.980;9.646;2022-08-19T07:33:24;31.08;;;23.85;;
28724;SDS011;43472;48.980;9.646;2022-08-19T07:38:28;32.17;;;23.75;;
28724;SDS011;43472;48.980;9.646;2022-08-19T07:43:29;35.15;;;23.90;;
28724;SDS011;43472;48.980;9.646;2022-08-19T07:48:35;30.10;;;24.85;;
28724;SDS011;43472;48.980;9.646;2022-08-19T07:54:23;25.10;;;21.20;;
28724;SDS011;43472;48.980;9.646;2022-08-19T07:59:26;30.52;;;23.40;;
28724;SDS011;43472;48.980;9.646;2022-08-19T08:04:30;31.00;;;22.73;;
28724;SDS011;43472;48.980;9.646;2022-08-19T08:09:51;27.17;;;22.65;;
28724;SDS011;43472;48.980;9.646;2022-08-19T08:15:05;29.70;;;21.73;;
28724;SDS011;43472;48.980;9.646;2022-08-19T08:20:13;31.08;;;24.40;;
28724;SDS011;43472;48.980;9.646;2022-08-19T08:25:17;35.20;;;27.08;;
28724;SDS011;43472;48.980;9.646;2022-08-19T08:30:23;34.65;;;25.65;;
28724;SDS011;43472;48.980;9.646;2022-08-19T08:35:31;32.25;;;24.15;;
28724;SDS011;43472;48.980;9.646;2022-08-19T08:50:54;31.02;;;24.35;;
28724;SDS011;43472;48.980;9.646;2022-08-19T08:55:58;30.77;;;23.73;;
28724;SDS011;43472;48.980;9.646;2022-08-19T09:01:03;31.27;;;22.92;;
28724;SDS011;43472;48.980;9.646;2022-08-19T09:12:00;32.45;;;24.77;;
28724;SDS011;43472;48.980;9.646;2022-08-19T09:17:27;31.65;;;24.17;;
28724;SDS011;43472;48.980;9.646;2022-08-19T09:22:37;30.42;;;23.80;;
28724;SDS011;43472;48.980;9.646;2022-08-19T09:27:41;29.92;;;22.73;;
28724;SDS011;43472;48.980;9.646;2022-08-19T09:32:44;35.88;;;23.20;;
28724;SDS011;43472;48.980;9.646;2022-08-19T09:37:53;35.42;;;25.63;;
28724;SDS011;43472;48.980;9.646;2022-08-19T09:42:59;27.02;;;21.50;;
28724;SDS011;43472;48.980;9.646;2022-08-19T09:48:13;30.17;;;22.45;;
28724;SDS011;43472;48.980;9.646;2022-08-19T09:53:23;51.60;;;24.77;;
28724;SDS011;43472;48.980;9.646;2022-08-19T09:58:26;34.90;;;24.30;;
28724;SDS011;43472;48.980;9.646;2022-08-19T10:03:29;32.47;;;22.90;;
28724;SDS011;43472;48.980;9.646;2022-08-19T10:08:33;31.75;;;22.92;;
28724;SDS011;43472;48.980;9.646;2022-08-19T10:13:37;29.48;;;22.77;;
28724;SDS011;43472;48.980;9.646;2022-08-19T10:18:40;29.42;;;21.77;;
28724;SDS011;43472;48.980;9.646;2022-08-19T10:23:50;28.10;;;20.37;;
28724;SDS011;43472;48.980;9.646;2022-08-19T10:28:54;27.17;;;20.52;;
28724;SDS011;43472;48.980;9.646;2022-08-19T10:33:58;28.05;;;19.60;;
28724;SDS011;43472;48.980;9.646;2022-08-19T10:39:04;20.38;;;16.27;;
28724;SDS011;43472;48.980;9.646;2022-08-19T10:44:10;25.13;;;19.15;;
28724;SDS011;43472;48.980;9.646;2022-08-19T10:49:14;29.88;;;19.70;;
28724;SDS011;43472;48.980;9.646;2022-08-19T10:54:17;32.83;;;19.38;;
28724;SDS011;43472;48.980;9.646;2022-08-19T10:59:33;26.45;;;20.73;;
28724;SDS011;43472;48.980;9.646;2022-08-19T11:04:37;29.27;;;20.70;;
28724;SDS011;43472;48.980;9.646;2022-08-19T11:09:40;28.40;;;20.38;;
28724;SDS011;43472;48.980;9.646;2022-08-19T11:14:43;27.40;;;21.20;;
28724;SDS011;43472;48.980;9.646;2022-08-19T11:19:45;26.38;;;21.63;;
28724;SDS011;43472;48.980;9.646;2022-08-19T11:24:50;28.73;;;20.45;;
28724;SDS011;43472;48.980;9.646;2022-08-19T11:29:51;30.67;;;19.92;;
28724;SDS011;43472;48.980;9.646;2022-08-19T11:34:53;32.30;;;23.25;;
28724;SDS011;43472;48.980;9.646;2022-08-19T11:39:55;29.77;;;22.45;;
28724;SDS011;43472;48.980;9.646;2022-08-19T11:44:57;30.48;;;24.02;;
28724;SDS011;43472;48.980;9.646;2022-08-19T11:49:59;34.33;;;23.95;;
28724;SDS011;43472;48.980;9.646;2022-08-19T11:55:01;32.70;;;23.58;;
28724;SDS011;43472;48.980;9.646;2022-08-19T12:00:04;30.60;;;24.00;;
28724;SDS011;43472;48.980;9.646;2022-08-19T12:05:08;30.70;;;23.98;;
28724;SDS011;43472;48.980;9.646;2022-08-19T12:10:13;34.25;;;25.02;;
28724;SDS011;43472;48.980;9.646;2022-08-19T12:15:19;33.35;;;25.90;;
28724;SDS011;43472;48.980;9.646;2022-08-19T12:20:21;31.52;;;26.67;;
28724;SDS011;43472;48.980;9.646;2022-08-19T12:25:23;34.97;;;26.17;;
28724;SDS011;43472;48.980;9.646;2022-08-19T12:30:25;33.30;;;26.67;;
28724;SDS011;43472;48.980;9.646;2022-08-19T12:35:27;37.47;;;28.50;;
28724;SDS011;43472;48.980;9.646;2022-08-19T12:40:29;38.63;;;28.40;;
28724;SDS011;43472;48.980;9.646;2022-08-19T12:45:31;35.97;;;27.90;;
28724;SDS011;43472;48.980;9.646;2022-08-19T12:50:35;37.55;;;28.35;;
28724;SDS011;43472;48.980;9.646;2022-08-19T12:55:36;42.78;;;29.00;;
28724;SDS011;43472;48.980;9.646;2022-08-19T13:00:38;35.58;;;27.25;;
28724;SDS011;43472;48.980;9.646;2022-08-19T13:05:41;33.97;;;26.83;;
28724;SDS011;43472;48.980;9.646;2022-08-19T13:10:43;30.02;;;24.48;;
28724;SDS011;43472;48.980;9.646;2022-08-19T13:15:45;31.45;;;24.88;;
28724;SDS011;43472;48.980;9.646;2022-08-19T13:20:47;31.55;;;24.30;;
28724;SDS011;43472;48.980;9.646;2022-08-19T13:25:57;24.67;;;21.92;;
28724;SDS011;43472;48.980;9.646;2022-08-19T13:31:03;29.52;;;22.80;;
28724;SDS011;43472;48.980;9.646;2022-08-19T13:36:24;28.10;;;21.35;;
28724;SDS011;43472;48.980;9.646;2022-08-19T13:41:26;24.60;;;20.83;;
28724;SDS011;43472;48.980;9.646;2022-08-19T13:46:28;23.15;;;20.52;;
28724;SDS011;43472;48.980;9.646;2022-08-19T13:51:31;24.88;;;20.90;;
28724;SDS011;43472;48.980;9.646;2022-08-19T13:56:33;21.80;;;18.10;;
28724;SDS011;43472;48.980;9.646;2022-08-19T14:01:36;22.55;;;17.20;;
28724;SDS011;43472;48.980;9.646;2022-08-19T14:06:39;19.52;;;17.02;;
28724;SDS011;43472;48.980;9.646;2022-08-19T14:11:41;21.88;;;18.15;;
28724;SDS011;43472;48.980;9.646;2022-08-19T14:16:43;22.10;;;16.30;;
28724;SDS011;43472;48.980;9.646;2022-08-19T14:21:45;17.33;;;15.10;;
28724;SDS011;43472;48.980;9.646;2022-08-19T14:26:47;18.35;;;16.20;;
28724;SDS011;43472;48.980;9.646;2022-08-19T14:31:49;21.23;;;17.05;;
28724;SDS011;43472;48.980;9.646;2022-08-19T14:36:50;22.98;;;17.42;;
28724;SDS011;43472;48.980;9.646;2022-08-19T14:41:53;23.83;;;15.23;;
28724;SDS011;43472;48.980;9.646;2022-08-19T14:46:55;18.25;;;14.20;;
28724;SDS011;43472;48.980;9.646;2022-08-19T14:51:59;19.25;;;16.08;;
28724;SDS011;43472;48.980;9.646;2022-08-19T14:57:01;15.32;;;13.13;;
28724;SDS011;43472;48.980;9.646;2022-08-19T15:02:03;21.52;;;15.85;;
28724;SDS011;43472;48.980;9.646;2022-08-19T15:07:25;19.65;;;17.48;;
28724;SDS011;43472;48.980;9.646;2022-08-19T15:12:29;20.42;;;17.20;;
28724;SDS011;43472;48.980;9.646;2022-08-19T15:17:31;18.80;;;16.80;;
28724;SDS011;43472;48.980;9.646;2022-08-19T15:22:53;21.52;;;17.40;;
28724;SDS011;43472;48.980;9.646;2022-08-19T15:27:56;21.85;;;17.35;;
28724;SDS011;43472;48.980;9.646;2022-08-19T15:32:58;22.58;;;17.98;;
28724;SDS011;43472;48.980;9.646;2022-08-19T15:38:00;25.75;;;20.00;;
28724;SDS011;43472;48.980;9.646;2022-08-19T15:43:02;22.58;;;19.60;;
28724;SDS011;43472;48.980;9.646;2022-08-19T15:48:05;27.52;;;22.25;;
28724;SDS011;43472;48.980;9.646;2022-08-19T15:53:09;27.13;;;22.63;;
28724;SDS011;43472;48.980;9.646;2022-08-19T15:58:12;26.38;;;23.48;;
28724;SDS011;43472;48.980;9.646;2022-08-19T16:08:57;26.80;;;23.08;;
28724;SDS011;43472;48.980;9.646;2022-08-19T16:14:02;27.50;;;22.15;;
28724;SDS011;43472;48.980;9.646;2022-08-19T16:19:05;29.30;;;25.70;;
28724;SDS011;43472;48.980;9.646;2022-08-19T16:24:12;28.80;;;23.08;;
28724;SDS011;43472;48.980;9.646;2022-08-19T16:29:17;26.30;;;21.90;;
28724;SDS011;43472;48.980;9.646;2022-08-19T16:34:35;23.02;;;20.63;;
28724;SDS011;43472;48.980;9.646;2022-08-19T16:39:39;24.25;;;20.50;;
28724;SDS011;43472;48.980;9.646;2022-08-19T16:44:44;27.20;;;22.27;;
28724;SDS011;43472;48.980;9.646;2022-08-19T16:49:46;26.55;;;20.90;;
28724;SDS011;43472;48.980;9.646;2022-08-19T16:54:55;26.33;;;22.30;;
28724;SDS011;43472;48.980;9.646;2022-08-19T16:59:57;24.33;;;20.52;;
28724;SDS011;43472;48.980;9.646;2022-08-19T17:04:59;26.38;;;21.90;;
28724;SDS011;43472;48.980;9.646;2022-08-19T17:10:03;24.25;;;20.77;;
28724;SDS011;43472;48.980;9.646;2022-08-19T17:15:05;27.50;;;21.45;;
28724;SDS011;43472;48.980;9.646;2022-08-19T17:20:11;26.48;;;21.80;;
28724;SDS011;43472;48.980;9.646;2022-08-19T17:25:13;24.88;;;21.52;;
28724;SDS011;43472;48.980;9.646;2022-08-19T17:30:16;31.23;;;24.02;;
28724;SDS011;43472;48.980;9.646;2022-08-19T17:35:19;25.02;;;22.05;;
28724;SDS011;43472;48.980;9.646;2022-08-19T17:40:24;27.98;;;23.08;;
28724;SDS011;43472;48.980;9.646;2022-08-19T17:45:30;30.48;;;26.10;;
28724;SDS011;43472;48.980;9.646;2022-08-19T17:50:32;27.88;;;23.02;;
28724;SDS011;43472;48.980;9.646;2022-08-19T17:55:35;30.30;;;25.13;;
28724;SDS011;43472;48.980;9.646;2022-08-19T18:00:37;28.63;;;23.55;;
28724;SDS011;43472;48.980;9.646;2022-08-19T18:05:54;36.50;;;25.25;;
28724;SDS011;43472;48.980;9.646;2022-08-19T18:10:57;31.42;;;24.63;;
28724;SDS011;43472;48.980;9.646;2022-08-19T18:16:00;29.73;;;24.23;;
28724;SDS011;43472;48.980;9.646;2022-08-19T18:21:03;28.92;;;23.23;;
28724;SDS011;43472;48.980;9.646;2022-08-19T18:26:05;29.85;;;24.83;;
28724;SDS011;43472;48.980;9.646;2022-08-19T18:31:07;32.22;;;25.15;;
28724;SDS011;43472;48.980;9.646;2022-08-19T18:36:09;29.52;;;22.20;;
28724;SDS011;43472;48.980;9.646;2022-08-19T18:41:12;37.08;;;25.20;;
28724;SDS011;43472;48.980;9.646;2022-08-19T18:46:32;35.78;;;26.98;;
28724;SDS011;43472;48.980;9.646;2022-08-19T18:51:57;29.73;;;24.65;;
28724;SDS011;43472;48.980;9.646;2022-08-19T18:57:01;36.00;;;25.30;;
28724;SDS011;43472;48.980;9.646;2022-08-19T19:02:05;29.45;;;24.25;;
28724;SDS011;43472;48.980;9.646;2022-08-19T19:07:10;29.83;;;22.20;;
28724;SDS011;43472;48.980;9.646;2022-08-19T19:12:15;29.23;;;22.23;;
28724;SDS011;43472;48.980;9.646;2022-08-19T19:17:18;30.67;;;24.77;;
28724;SDS011;43472;48.980;9.646;2022-08-19T19:22:26;30.42;;;22.90;;
28724;SDS011;43472;48.980;9.646;2022-08-19T19:27:28;33.55;;;23.10;;
28724;SDS011;43472;48.980;9.646;2022-08-19T19:32:30;25.20;;;20.55;;
28724;SDS011;43472;48.980;9.646;2022-08-19T19:37:39;34.72;;;25.50;;
28724;SDS011;43472;48.980;9.646;2022-08-19T19:42:43;27.00;;;22.45;;
28724;SDS011;43472;48.980;9.646;2022-08-19T19:47:47;30.58;;;24.52;;
28724;SDS011;43472;48.980;9.646;2022-08-19T19:52:50;40.28;;;27.02;;
28724;SDS011;43472;48.980;9.646;2022-08-19T19:57:52;30.42;;;23.45;;
28724;SDS011;43472;48.980;9.646;2022-08-19T20:02:54;24.70;;;21.45;;
28724;SDS011;43472;48.980;9.646;2022-08-19T20:07:56;32.80;;;25.35;;
28724;SDS011;43472;48.980;9.646;2022-08-19T20:13:19;37.90;;;24.73;;
28724;SDS011;43472;48.980;9.646;2022-08-19T20:18:21;36.38;;;27.73;;
28724;SDS011;43472;48.980;9.646;2022-08-19T20:23:24;34.70;;;25.95;;
28724;SDS011;43472;48.980;9.646;2022-08-19T20:28:26;37.78;;;25.75;;
28724;SDS011;43472;48.980;9.646;2022-08-19T20:33:28;32.00;;;25.33;;
28724;SDS011;43472;48.980;9.646;2022-08-19T20:38:31;40.15;;;28.05;;
28724;SDS011;43472;48.980;9.646;2022-08-19T20:43:35;28.98;;;23.63;;
28724;SDS011;43472;48.980;9.646;2022-08-19T20:48:38;31.77;;;25.85;;
28724;SDS011;43472;48.980;9.646;2022-08-19T20:53:42;34.33;;;24.95;;
28724;SDS011;43472;48.980;9.646;2022-08-19T20:58:45;29.77;;;23.42;;
28724;SDS011;43472;48.980;9.646;2022-08-19T21:03:54;38.25;;;25.05;;
28724;SDS011;43472;48.980;9.646;2022-08-19T21:08:56;32.45;;;24.58;;
28724;SDS011;43472;48.980;9.646;2022-08-19T21:13:58;38.28;;;25.05;;
28724;SDS011;43472;48.980;9.646;2022-08-19T21:19:00;30.83;;;25.38;;
28724;SDS011;43472;48.980;9.646;2022-08-19T21:24:02;33.65;;;25.20;;
28724;SDS011;43472;48.980;9.646;2022-08-19T21:29:05;34.33;;;24.40;;
28724;SDS011;43472;48.980;9.646;2022-08-19T21:34:07;29.98;;;24.13;;
28724;SDS011;43472;48.980;9.646;2022-08-19T21:39:09;33.75;;;25.80;;
28724;SDS011;43472;48.980;9.646;2022-08-19T21:44:11;222.70;;;35.47;;
28724;SDS011;43472;48.980;9.646;2022-08-19T21:49:13;49.22;;;30.98;;
28724;SDS011;43472;48.980;9.646;2022-08-19T21:54:15;31.15;;;24.23;;
28724;SDS011;43472;48.980;9.646;2022-08-19T21:59:16;39.90;;;29.00;;
28724;SDS011;43472;48.980;9.646;2022-08-19T22:04:18;34.13;;;25.70;;
28724;SDS011;43472;48.980;9.646;2022-08-19T22:09:20;28.23;;;23.73;;
28724;SDS011;43472;48.980;9.646;2022-08-19T22:14:22;34.28;;;24.67;;
28724;SDS011;43472;48.980;9.646;2022-08-19T22:19:24;32.50;;;23.55;;
28724;SDS011;43472;48.980;9.646;2022-08-19T22:24:26;33.08;;;23.17;;
28724;SDS011;43472;48.980;9.646;2022-08-19T22:29:28;57.92;;;26.77;;
28724;SDS011;43472;48.980;9.646;2022-08-19T22:34:34;95.40;;;27.13;;
28724;SDS011;43472;48.980;9.646;2022-08-19T22:39:36;29.17;;;25.60;;
28724;SDS011;43472;48.980;9.646;2022-08-19T22:44:38;28.13;;;22.45;;
28724;SDS011;43472;48.980;9.646;2022-08-19T22:49:40;28.15;;;21.27;;
28724;SDS011;43472;48.980;9.646;2022-08-19T22:54:42;34.97;;;24.75;;
28724;SDS011;43472;48.980;9.646;2022-08-19T22:59:55;28.77;;;24.42;;
28724;SDS011;43472;48.980;9.646;2022-08-19T23:05:01;97.72;;;28.23;;
28724;SDS011;43472;48.980;9.646;2022-08-19T23:10:05;67.53;;;25.92;;
28724;SDS011;43472;48.980;9.646;2022-08-19T23:15:14;44.85;;;22.08;;
28724;SDS011;43472;48.980;9.646;2022-08-19T23:20:19;28.70;;;20.50;;
28724;SDS011;43472;48.980;9.646;2022-08-19T23:25:28;28.88;;;20.60;;
28724;SDS011;43472;48.980;9.646;2022-08-19T23:30:32;43.40;;;22.30;;
28724;SDS011;43472;48.980;9.646;2022-08-19T23:35:37;36.58;;;22.75;;
28724;SDS011;43472;48.980;9.646;2022-08-19T23:40:40;102.10;;;25.30;;
28724;SDS011;43472;48.980;9.646;2022-08-19T23:45:43;137.13;;;27.60;;
28724;SDS011;43472;48.980;9.646;2022-08-19T23:50:51;31.55;;;25.67;;
28724;SDS011;43472;48.980;9.646;2022-08-19T23:55:54;53.67;;;24.73;;
